Time;durP1;ratioP1;P1;durP2;ratioP2;P2;SDS_P1;SDS_P2;PMS_P1;PMS_P2;Temp;Humidity;BMP_temperature;BMP_pressure;BME280_temperature;BME280_humidity;BME280_pressure;Samples;Min_cycle;Max_cycle;Signal;HPM_P1;HPM_P2
2021/07/22 00:01:27;;;;;;;;;;;;;;;;;;5081647;28;19924;-67
2021/07/22 00:03:54;;;;;;;;;;;;;;;;;;5086858;28;19924;-67
2021/07/22 00:06:21;;;;;;;;;;;;;;;;;;5079586;28;20300;-67
2021/07/22 00:08:48;;;;;;;;;;;;;;;;;;5082480;28;19925;-67
2021/07/22 00:11:15;;;;;;;;;;;;;;;;;;5084074;28;19934;-67
2021/07/22 00:13:42;;;;;;;;;;;;;;;;;;5069653;28;19925;-67
2021/07/22 00:16:21;;;;;;;;;;;;;;;;;;5084272;28;20303;-67
2021/07/22 00:18:48;;;;;;;;;;;;;;;;;;5068975;28;19925;-67
2021/07/22 00:21:15;;;;;;;;;;;;;;;;;;5073020;28;20300;-67
2021/07/22 00:23:42;;;;;;;;;;;;;;;;;;5086766;28;19925;-67
2021/07/22 00:26:09;;;;;;;;;;;;;;;;;;5087856;28;19928;-67
2021/07/22 00:28:36;;;;;;;;;;;;;;;;;;5087163;28;20201;-66
2021/07/22 00:31:03;;;;;;;;;;;;;;;;;;5078671;28;20277;-66
2021/07/22 00:33:30;;;;;;;;;;;;;;;;;;5086248;28;20090;-67
2021/07/22 00:35:58;;;;;;;;;;;;;;;;;;5086266;28;19924;-67
2021/07/22 00:38:25;;;;;;;;;;;;;;;;;;5086284;28;20016;-68
2021/07/22 00:40:52;;;;;;;;;;;;;;;;;;5073871;28;19924;-68
2021/07/22 00:43:19;;;;;;;;;;;;;;;;;;5085918;28;19930;-68
2021/07/22 00:45:46;;;;;;;;;;;;;;;;;;5085277;28;20023;-68
2021/07/22 00:48:13;;;;;;;;;;;;;;;;;;5082756;28;19952;-68
2021/07/22 00:50:40;;;;;;;;;;;;;;;;;;5077246;28;19924;-67
2021/07/22 00:53:07;;;;;;;;;;;;;;;;;;5083570;28;19924;-68
2021/07/22 00:55:34;;;;;;;;;;;;;;;;;;5097814;28;20315;-65
2021/07/22 00:58:01;;;;;;;;;;;;;;;;;;5098059;28;19930;-66
2021/07/22 01:00:28;;;;;;;;;;;;;;;;;;5101982;28;19924;-66
2021/07/22 01:02:55;;;;;;;;;;;;;;;;;;5104543;28;19928;-67
2021/07/22 01:05:22;;;;;;;;;;;;;;;;;;5103249;28;19932;-66
2021/07/22 01:07:49;;;;;;;;;;;;;;;;;;5088239;28;19931;-66
2021/07/22 01:10:16;;;;;;;;;;;;;;;;;;5084985;28;20404;-67
2021/07/22 01:12:43;;;;;;;;;;;;;;;;;;5087818;28;20308;-66
2021/07/22 01:15:10;;;;;;;;;;;;;;;;;;5084792;28;20027;-66
2021/07/22 01:17:36;;;;;;;;;;;;;;;;;;5076795;28;19928;-67
2021/07/22 01:20:03;;;;;;;;;;;;;;;;;;5078185;28;20311;-64
2021/07/22 01:22:32;;;;;;;;;;;;;;;;;;5086446;28;19924;-65
2021/07/22 01:24:59;;;;;;;;;;;;;;;;;;5081545;28;19932;-64
2021/07/22 01:27:26;;;;;;;;;;;;;;;;;;5076811;28;19928;-65
2021/07/22 01:29:53;;;;;;;;;;;;;;;;;;5093076;28;19924;-64
2021/07/22 01:32:20;;;;;;;;;;;;;;;;;;5088692;28;19924;-64
2021/07/22 01:34:47;;;;;;;;;;;;;;;;;;5075049;28;20289;-64
2021/07/22 01:37:14;;;;;;;;;;;;;;;;;;5087216;28;19955;-64
2021/07/22 01:39:41;;;;;;;;;;;;;;;;;;5085393;28;20350;-64
2021/07/22 01:42:08;;;;;;;;;;;;;;;;;;5082898;28;19924;-64
2021/07/22 01:44:35;;;;;;;;;;;;;;;;;;5091672;28;19928;-64
2021/07/22 01:47:02;;;;;;;;;;;;;;;;;;5080568;28;19924;-64
2021/07/22 01:49:29;;;;;;;;;;;;;;;;;;5088049;28;19924;-64
2021/07/22 01:51:56;;;;;;;;;;;;;;;;;;5082105;28;20348;-64
2021/07/22 01:54:23;;;;;;;;;;;;;;;;;;5091475;28;19924;-64
2021/07/22 01:56:50;;;;;;;;;;;;;;;;;;5092829;28;19924;-64
2021/07/22 01:59:17;;;;;;;;;;;;;;;;;;5092253;28;19932;-64
2021/07/22 02:01:44;;;;;;;;;;;;;;;;;;5085709;28;20360;-64
2021/07/22 02:04:11;;;;;;;;;;;;;;;;;;5089458;28;19924;-64
2021/07/22 02:06:38;;;;;;;;;;;;;;;;;;5090058;28;19924;-65
2021/07/22 02:09:05;;;;;;;;;;;;;;;;;;5092201;28;19924;-64
2021/07/22 02:11:32;;;;;;;;;;;;;;;;;;5085069;28;20311;-64
2021/07/22 02:13:58;;;;;;;;;;;;;;;;;;5081894;28;19925;-65
2021/07/22 02:16:25;;;;;;;;;;;;;;;;;;5079460;28;20292;-65
2021/07/22 02:18:52;;;;;;;;;;;;;;;;;;5086865;28;19924;-65
2021/07/22 02:21:19;;;;;;;;;;;;;;;;;;5089821;28;19930;-65
2021/07/22 02:23:46;;;;;;;;;;;;;;;;;;5083944;28;20322;-67
2021/07/22 02:26:13;;;;;;;;;;;;;;;;;;5085037;28;19933;-65
2021/07/22 02:28:40;;;;;;;;;;;;;;;;;;5088336;28;19924;-65
2021/07/22 02:31:07;;;;;;;;;;;;;;;;;;5083704;28;19942;-65
2021/07/22 02:33:34;;;;;;;;;;;;;;;;;;5086995;28;19924;-65
2021/07/22 02:36:01;;;;;;;;;;;;;;;;;;5091479;28;19932;-64
2021/07/22 02:38:28;;;;;;;;;;;;;;;;;;5091683;28;20410;-65
2021/07/22 02:40:55;;;;;;;;;;;;;;;;;;5089856;28;19951;-64
2021/07/22 02:43:22;;;;;;;;;;;;;;;;;;5082888;28;20423;-65
2021/07/22 02:45:49;;;;;;;;;;;;;;;;;;5090466;28;20288;-65
2021/07/22 02:48:16;;;;;;;;;;;;;;;;;;5090889;28;19928;-64
2021/07/22 02:50:43;;;;;;;;;;;;;;;;;;5082431;28;20322;-65
2021/07/22 02:53:10;;;;;;;;;;;;;;;;;;5084880;28;19924;-64
2021/07/22 02:55:37;;;;;;;;;;;;;;;;;;5088650;28;20449;-65
2021/07/22 02:58:04;;;;;;;;;;;;;;;;;;5082565;28;19931;-64
2021/07/22 03:00:31;;;;;;;;;;;;;;;;;;5088907;28;19969;-66
2021/07/22 03:02:58;;;;;;;;;;;;;;;;;;5072378;28;19928;-66
2021/07/22 03:05:25;;;;;;;;;;;;;;;;;;5089600;28;19928;-64
2021/07/22 03:07:52;;;;;;;;;;;;;;;;;;5090421;28;19924;-64
2021/07/22 03:10:19;;;;;;;;;;;;;;;;;;5090035;28;20395;-65
2021/07/22 03:12:46;;;;;;;;;;;;;;;;;;5088777;28;19924;-65
2021/07/22 03:15:13;;;;;;;;;;;;;;;;;;5086718;28;20015;-65
2021/07/22 03:17:40;;;;;;;;;;;;;;;;;;5084289;28;19924;-65
2021/07/22 03:20:07;;;;;;;;;;;;;;;;;;5084200;28;19947;-65
2021/07/22 03:22:34;;;;;;;;;;;;;;;;;;5088305;28;19928;-65
2021/07/22 03:25:01;;;;;;;;;;;;;;;;;;5085730;28;20280;-65
2021/07/22 03:27:28;;;;;;;;;;;;;;;;;;5091143;28;19998;-65
2021/07/22 03:29:55;;;;;;;;;;;;;;;;;;5090239;28;19946;-65
2021/07/22 03:32:21;;;;;;;;;;;;;;;;;;5090114;28;19932;-65
2021/07/22 03:34:48;;;;;;;;;;;;;;;;;;5089552;28;19924;-64
2021/07/22 03:37:15;;;;;;;;;;;;;;;;;;5088007;28;20307;-64
2021/07/22 03:39:42;;;;;;;;;;;;;;;;;;5083170;22;19932;-69
2021/07/22 03:42:12;;;;;;;;;;;;;;;;;;5050030;28;19929;-69
2021/07/22 03:44:39;;;;;;;;;;;;;;;;;;5046200;28;20407;-70
2021/07/22 03:47:06;;;;;;;;;;;;;;;;;;5046165;28;19971;-69
2021/07/22 03:49:33;;;;;;;;;;;;;;;;;;5049484;28;19925;-69
2021/07/22 03:52:00;;;;;;;;;;;;;;;;;;5040563;28;19951;-69
2021/07/22 03:54:26;;;;;;;;;;;;;;;;;;5040841;28;19925;-70
2021/07/22 03:56:53;;;;;;;;;;;;;;;;;;5043324;28;19925;-69
2021/07/22 03:59:20;;;;;;;;;;;;;;;;;;5042764;28;19925;-70
2021/07/22 04:01:47;;;;;;;;;;;;;;;;;;5047375;28;20304;-69
2021/07/22 04:04:14;;;;;;;;;;;;;;;;;;5045713;28;20641;-69
2021/07/22 04:06:41;;;;;;;;;;;;;;;;;;5044016;28;19947;-69
2021/07/22 04:09:08;;;;;;;;;;;;;;;;;;5039701;28;19925;-70
2021/07/22 04:11:35;;;;;;;;;;;;;;;;;;5047283;28;19948;-69
2021/07/22 04:14:02;;;;;;;;;;;;;;;;;;5039788;28;19936;-69
2021/07/22 04:16:29;;;;;;;;;;;;;;;;;;5040900;28;19935;-69
2021/07/22 04:18:56;;;;;;;;;;;;;;;;;;5041560;28;20386;-69
2021/07/22 04:21:23;;;;;;;;;;;;;;;;;;5038226;28;19932;-69
2021/07/22 04:23:50;;;;;;;;;;;;;;;;;;5039708;28;19925;-69
2021/07/22 04:26:17;;;;;;;;;;;;;;;;;;5042011;28;19925;-69
2021/07/22 04:28:44;;;;;;;;;;;;;;;;;;5044988;28;19925;-69
2021/07/22 04:31:11;;;;;;;;;;;;;;;;;;5038457;28;19925;-70
2021/07/22 04:33:38;;;;;;;;;;;;;;;;;;5038493;28;19924;-70
2021/07/22 04:36:04;;;;;;;;;;;;;;;;;;5034565;28;19925;-69
2021/07/22 04:38:34;;;;;;;;;;;;;;;;;;5047294;28;21204;-69
2021/07/22 04:41:01;;;;;;;;;;;;;;;;;;5048489;28;19924;-69
2021/07/22 04:43:28;;;;;;;;;;;;;;;;;;5050279;28;19944;-70
2021/07/22 04:45:55;;;;;;;;;;;;;;;;;;5050617;28;20229;-69
2021/07/22 04:48:22;;;;;;;;;;;;;;;;;;5048435;28;19936;-70
2021/07/22 04:50:49;;;;;;;;;;;;;;;;;;5050680;28;19925;-69
2021/07/22 04:53:16;;;;;;;;;;;;;;;;;;5052383;28;19979;-68
2021/07/22 04:55:42;;;;;;;;;;;;;;;;;;5052477;28;19929;-68
2021/07/22 04:58:09;;;;;;;;;;;;;;;;;;5049406;28;20704;-68
2021/07/22 05:00:36;;;;;;;;;;;;;;;;;;5051283;28;19936;-69
2021/07/22 05:03:03;;;;;;;;;;;;;;;;;;5051104;28;19999;-69
2021/07/22 05:05:35;;;;;;;;;;;;;;;;;;5042577;28;19932;-71
2021/07/22 05:08:02;;;;;;;;;;;;;;;;;;5042094;28;19925;-71
2021/07/22 05:10:29;;;;;;;;;;;;;;;;;;5052205;28;19925;-71
2021/07/22 05:12:56;;;;;;;;;;;;;;;;;;5052626;28;19925;-71
2021/07/22 05:15:23;;;;;;;;;;;;;;;;;;5044569;28;19925;-71
2021/07/22 05:17:52;;;;;;;;;;;;;;;;;;5052835;28;19929;-71
2021/07/22 05:20:19;;;;;;;;;;;;;;;;;;5051775;28;19932;-71
2021/07/22 05:22:46;;;;;;;;;;;;;;;;;;5046068;28;19924;-72
2021/07/22 05:25:13;;;;;;;;;;;;;;;;;;5050811;28;20285;-71
2021/07/22 05:27:40;;;;;;;;;;;;;;;;;;5041786;28;19931;-72
2021/07/22 05:30:07;;;;;;;;;;;;;;;;;;5048639;28;19924;-72
2021/07/22 05:32:34;;;;;;;;;;;;;;;;;;5050708;28;20376;-72
2021/07/22 05:35:01;;;;;;;;;;;;;;;;;;5047998;28;19931;-72
2021/07/22 05:37:28;;;;;;;;;;;;;;;;;;5045086;28;19924;-73
2021/07/22 05:39:55;;;;;;;;;;;;;;;;;;5046148;28;19944;-72
2021/07/22 05:42:22;;;;;;;;;;;;;;;;;;5048709;28;20304;-71
2021/07/22 05:44:49;;;;;;;;;;;;;;;;;;5051245;28;19925;-72
2021/07/22 05:47:16;;;;;;;;;;;;;;;;;;5049446;28;19929;-72
2021/07/22 05:49:43;;;;;;;;;;;;;;;;;;5048409;28;19925;-72
2021/07/22 05:52:10;;;;;;;;;;;;;;;;;;5043616;28;20331;-73
2021/07/22 05:54:37;;;;;;;;;;;;;;;;;;5046981;28;20059;-73
2021/07/22 05:57:04;;;;;;;;;;;;;;;;;;5050791;28;20361;-73
2021/07/22 05:59:33;;;;;;;;;;;;;;;;;;5050376;28;19924;-73
2021/07/22 06:02:01;;;;;;;;;;;;;;;;;;5044249;28;20384;-73
2021/07/22 06:04:28;;;;;;;;;;;;;;;;;;5045786;28;19925;-73
2021/07/22 06:06:55;;;;;;;;;;;;;;;;;;5046468;28;19986;-73
2021/07/22 06:09:22;;;;;;;;;;;;;;;;;;5045990;28;19925;-71
2021/07/22 06:11:49;;;;;;;;;;;;;;;;;;5050237;28;19925;-72
2021/07/22 06:14:16;;;;;;;;;;;;;;;;;;5046279;28;19931;-72
2021/07/22 06:16:43;;;;;;;;;;;;;;;;;;5046523;28;20377;-72
2021/07/22 06:19:10;;;;;;;;;;;;;;;;;;5045005;28;20312;-72
2021/07/22 06:21:37;;;;;;;;;;;;;;;;;;5050109;28;20063;-72
2021/07/22 06:24:04;;;;;;;;;;;;;;;;;;5046327;28;20385;-72
2021/07/22 06:26:31;;;;;;;;;;;;;;;;;;5050621;28;19925;-72
2021/07/22 06:28:58;;;;;;;;;;;;;;;;;;5049800;28;19924;-71
2021/07/22 06:31:25;;;;;;;;;;;;;;;;;;5046711;28;20266;-72
2021/07/22 06:33:52;;;;;;;;;;;;;;;;;;5048427;28;19936;-72
2021/07/22 06:36:19;;;;;;;;;;;;;;;;;;5049864;28;19979;-72
2021/07/22 06:38:46;;;;;;;;;;;;;;;;;;5044265;28;20361;-72
2021/07/22 06:41:13;;;;;;;;;;;;;;;;;;5050374;28;19925;-72
2021/07/22 06:43:40;;;;;;;;;;;;;;;;;;5047554;28;20421;-72
2021/07/22 06:46:07;;;;;;;;;;;;;;;;;;5047055;28;19932;-72
2021/07/22 06:48:34;;;;;;;;;;;;;;;;;;5050425;28;20338;-72
2021/07/22 06:51:01;;;;;;;;;;;;;;;;;;5049476;28;20448;-72
2021/07/22 06:53:28;;;;;;;;;;;;;;;;;;5049288;28;20016;-72
2021/07/22 06:55:57;;;;;;;;;;;;;;;;;;5045353;28;19976;-72
2021/07/22 06:58:24;;;;;;;;;;;;;;;;;;5049532;28;19925;-72
2021/07/22 07:00:51;;;;;;;;;;;;;;;;;;5044841;28;20305;-71
2021/07/22 07:03:19;;;;;;;;;;;;;;;;;;5044172;28;19954;-71
2021/07/22 07:05:47;;;;;;;;;;;;;;;;;;5044688;28;20380;-71
2021/07/22 07:08:14;;;;;;;;;;;;;;;;;;5045292;28;19925;-73
2021/07/22 07:10:41;;;;;;;;;;;;;;;;;;5042147;28;19929;-73
2021/07/22 07:13:08;;;;;;;;;;;;;;;;;;5046216;28;19951;-74
2021/07/22 07:15:37;;;;;;;;;;;;;;;;;;5047276;28;20355;-75
2021/07/22 07:18:04;;;;;;;;;;;;;;;;;;5047542;28;19972;-72
2021/07/22 07:20:31;;;;;;;;;;;;;;;;;;5048516;28;20308;-72
2021/07/22 07:22:58;;;;;;;;;;;;;;;;;;5046338;28;19939;-73
2021/07/22 07:25:25;;;;;;;;;;;;;;;;;;5048219;28;19928;-72
2021/07/22 07:27:52;;;;;;;;;;;;;;;;;;5041204;28;20389;-71
2021/07/22 07:30:19;;;;;;;;;;;;;;;;;;5044327;28;19933;-73
2021/07/22 07:32:46;;;;;;;;;;;;;;;;;;5043807;28;19993;-74
2021/07/22 07:35:14;;;;;;;;;;;;;;;;;;5047650;28;20299;-74
2021/07/22 07:37:41;;;;;;;;;;;;;;;;;;5042532;28;19932;-72
2021/07/22 07:40:08;;;;;;;;;;;;;;;;;;5045787;28;19933;-73
2021/07/22 07:42:34;;;;;;;;;;;;;;;;;;5046874;28;19925;-72
2021/07/22 07:45:01;;;;;;;;;;;;;;;;;;5046294;28;19960;-72
2021/07/22 07:47:28;;;;;;;;;;;;;;;;;;5045143;28;19931;-73
2021/07/22 07:49:55;;;;;;;;;;;;;;;;;;5044420;28;19932;-71
2021/07/22 07:52:22;;;;;;;;;;;;;;;;;;5045968;28;19925;-73
2021/07/22 07:54:49;;;;;;;;;;;;;;;;;;5044722;28;19931;-70
2021/07/22 07:57:19;;;;;;;;;;;;;;;;;;5045579;28;19924;-70
2021/07/22 07:59:49;;;;;;;;;;;;;;;;;;5046837;28;19978;-71
2021/07/22 08:02:16;;;;;;;;;;;;;;;;;;5044403;28;19925;-71
2021/07/22 08:04:43;;;;;;;;;;;;;;;;;;5043038;28;19941;-70
2021/07/22 08:07:10;;;;;;;;;;;;;;;;;;5047478;28;20291;-70
2021/07/22 08:09:37;;;;;;;;;;;;;;;;;;5046248;28;19931;-67
2021/07/22 08:12:04;;;;;;;;;;;;;;;;;;5042008;28;19925;-72
2021/07/22 08:14:36;;;;;;;;;;;;;;;;;;5045511;28;20202;-69
2021/07/22 08:17:03;;;;;;;;;;;;;;;;;;5046429;28;19924;-71
2021/07/22 08:19:30;;;;;;;;;;;;;;;;;;5047921;28;19925;-71
2021/07/22 08:21:57;;;;;;;;;;;;;;;;;;5046364;28;19933;-69
2021/07/22 08:24:24;;;;;;;;;;;;;;;;;;5049685;28;19948;-69
2021/07/22 08:26:51;;;;;;;;;;;;;;;;;;5049164;28;19928;-68
2021/07/22 08:29:18;;;;;;;;;;;;;;;;;;5044186;28;19929;-68
2021/07/22 08:31:45;;;;;;;;;;;;;;;;;;5052827;28;20313;-68
2021/07/22 08:34:15;;;;;;;;;;;;;;;;;;5044191;28;19940;-68
2021/07/22 08:36:42;;;;;;;;;;;;;;;;;;5051242;28;20290;-71
2021/07/22 08:39:09;;;;;;;;;;;;;;;;;;5046243;28;19971;-72
2021/07/22 08:41:36;;;;;;;;;;;;;;;;;;5051707;28;19932;-70
2021/07/22 08:44:03;;;;;;;;;;;;;;;;;;5052953;28;19925;-71
2021/07/22 08:46:30;;;;;;;;;;;;;;;;;;5051936;28;19924;-68
2021/07/22 08:48:57;;;;;;;;;;;;;;;;;;5050771;28;19925;-67
2021/07/22 08:51:25;;;;;;;;;;;;;;;;;;5047733;28;19925;-69
2021/07/22 08:53:52;;;;;;;;;;;;;;;;;;5047260;28;19932;-68
2021/07/22 08:56:19;;;;;;;;;;;;;;;;;;5049990;28;19933;-69
2021/07/22 08:58:46;;;;;;;;;;;;;;;;;;5049926;28;20940;-69
2021/07/22 09:01:13;;;;;;;;;;;;;;;;;;5048397;28;19926;-68
2021/07/22 09:03:40;;;;;;;;;;;;;;;;;;5050859;28;19925;-70
2021/07/22 09:06:07;;;;;;;;;;;;;;;;;;5048886;28;19931;-71
2021/07/22 09:08:34;;;;;;;;;;;;;;;;;;5050589;28;20308;-71
2021/07/22 09:11:01;;;;;;;;;;;;;;;;;;5049642;28;19929;-69
2021/07/22 09:13:28;;;;;;;;;;;;;;;;;;5051980;28;19994;-70
2021/07/22 09:15:55;;;;;;;;;;;;;;;;;;5048870;28;19940;-70
2021/07/22 09:18:22;;;;;;;;;;;;;;;;;;5049581;28;19924;-69
2021/07/22 09:20:49;;;;;;;;;;;;;;;;;;5051228;28;19954;-69
2021/07/22 09:23:16;;;;;;;;;;;;;;;;;;5047092;28;20377;-68
2021/07/22 09:25:43;;;;;;;;;;;;;;;;;;5051554;28;19925;-71
2021/07/22 09:28:10;;;;;;;;;;;;;;;;;;5047939;28;19924;-70
2021/07/22 09:30:37;;;;;;;;;;;;;;;;;;5048947;28;20201;-69
2021/07/22 09:33:05;;;;;;;;;;;;;;;;;;5049684;28;20365;-69
2021/07/22 09:35:32;;;;;;;;;;;;;;;;;;5048978;28;19932;-69
2021/07/22 09:37:59;;;;;;;;;;;;;;;;;;5049850;28;20396;-69
2021/07/22 09:40:26;;;;;;;;;;;;;;;;;;5048267;28;19944;-69
2021/07/22 09:42:54;;;;;;;;;;;;;;;;;;5049565;28;20304;-70
2021/07/22 09:45:23;;;;;;;;;;;;;;;;;;5045406;28;19936;-71
2021/07/22 09:47:50;;;;;;;;;;;;;;;;;;5045213;28;20338;-71
2021/07/22 09:50:17;;;;;;;;;;;;;;;;;;5046820;28;19972;-71
2021/07/22 09:52:44;;;;;;;;;;;;;;;;;;5047738;28;21420;-71
2021/07/22 09:55:11;;;;;;;;;;;;;;;;;;5048720;28;19936;-70
2021/07/22 09:57:38;;;;;;;;;;;;;;;;;;5048404;28;19931;-70
2021/07/22 10:00:05;;;;;;;;;;;;;;;;;;5046865;28;19931;-70
2021/07/22 10:02:32;;;;;;;;;;;;;;;;;;5047499;28;19931;-70
2021/07/22 10:04:59;;;;;;;;;;;;;;;;;;5045708;28;19929;-69
2021/07/22 10:07:26;;;;;;;;;;;;;;;;;;5049401;28;19925;-69
2021/07/22 10:09:53;;;;;;;;;;;;;;;;;;5043729;28;19925;-69
2021/07/22 10:12:20;;;;;;;;;;;;;;;;;;5043520;28;19929;-72
2021/07/22 10:14:47;;;;;;;;;;;;;;;;;;5046658;28;19925;-71
2021/07/22 10:17:14;;;;;;;;;;;;;;;;;;5049727;28;19929;-72
2021/07/22 10:19:41;;;;;;;;;;;;;;;;;;5046438;28;19967;-70
2021/07/22 10:22:08;;;;;;;;;;;;;;;;;;5045907;28;19931;-73
2021/07/22 10:24:34;;;;;;;;;;;;;;;;;;5048356;28;19924;-72
2021/07/22 10:27:06;;;;;;;;;;;;;;;;;;5045450;28;19932;-74
2021/07/22 10:29:33;;;;;;;;;;;;;;;;;;5045503;28;20457;-71
2021/07/22 10:31:59;;;;;;;;;;;;;;;;;;5046411;28;19929;-71
2021/07/22 10:34:26;;;;;;;;;;;;;;;;;;5040796;28;19929;-73
2021/07/22 10:36:53;;;;;;;;;;;;;;;;;;5047551;28;20306;-72
2021/07/22 10:39:20;;;;;;;;;;;;;;;;;;5045961;28;20319;-71
2021/07/22 10:41:47;;;;;;;;;;;;;;;;;;5028152;28;19933;-71
2021/07/22 10:44:14;;;;;;;;;;;;;;;;;;5043428;28;19928;-73
2021/07/22 10:46:41;;;;;;;;;;;;;;;;;;5045061;28;19939;-71
2021/07/22 10:49:08;;;;;;;;;;;;;;;;;;5044011;28;19933;-75
2021/07/22 10:51:35;;;;;;;;;;;;;;;;;;5044661;28;19925;-70
2021/07/22 10:54:02;;;;;;;;;;;;;;;;;;5047720;28;20317;-71
2021/07/22 10:56:29;;;;;;;;;;;;;;;;;;5046959;28;19933;-72
2021/07/22 10:58:56;;;;;;;;;;;;;;;;;;5044537;28;20370;-70
2021/07/22 11:01:23;;;;;;;;;;;;;;;;;;5040712;28;19929;-72
2021/07/22 11:03:50;;;;;;;;;;;;;;;;;;5041041;28;19939;-69
2021/07/22 11:06:17;;;;;;;;;;;;;;;;;;5045438;28;19955;-72
2021/07/22 11:08:44;;;;;;;;;;;;;;;;;;5043779;28;20339;-72
2021/07/22 11:11:13;;;;;;;;;;;;;;;;;;5046986;28;20396;-72
2021/07/22 11:13:41;;;;;;;;;;;;;;;;;;5042556;28;20388;-74
2021/07/22 11:16:07;;;;;;;;;;;;;;;;;;5043971;28;19933;-72
2021/07/22 11:18:34;;;;;;;;;;;;;;;;;;5049631;28;19947;-71
2021/07/22 11:21:01;;;;;;;;;;;;;;;;;;5045298;28;19940;-73
2021/07/22 11:23:28;;;;;;;;;;;;;;;;;;5044228;28;19925;-72
2021/07/22 11:25:55;;;;;;;;;;;;;;;;;;5049205;28;19932;-73
2021/07/22 11:28:22;;;;;;;;;;;;;;;;;;5043032;28;19935;-71
2021/07/22 11:30:49;;;;;;;;;;;;;;;;;;5047017;28;20303;-74
2021/07/22 11:33:16;;;;;;;;;;;;;;;;;;5046624;28;20399;-72
2021/07/22 11:35:43;;;;;;;;;;;;;;;;;;5045876;28;19935;-72
2021/07/22 11:38:10;;;;;;;;;;;;;;;;;;5043546;28;19925;-73
2021/07/22 11:40:37;;;;;;;;;;;;;;;;;;5044680;28;19929;-70
2021/07/22 11:43:04;;;;;;;;;;;;;;;;;;5042905;28;19931;-73
2021/07/22 11:45:31;;;;;;;;;;;;;;;;;;5043420;28;19929;-73
2021/07/22 11:47:58;;;;;;;;;;;;;;;;;;5045157;28;19931;-72
2021/07/22 11:50:26;;;;;;;;;;;;;;;;;;5044919;28;19932;-72
2021/07/22 11:52:53;;;;;;;;;;;;;;;;;;5045033;28;19947;-72
2021/07/22 11:55:20;;;;;;;;;;;;;;;;;;5049407;28;20016;-74
2021/07/22 11:57:47;;;;;;;;;;;;;;;;;;5039088;28;19972;-70
2021/07/22 12:00:14;;;;;;;;;;;;;;;;;;5040823;28;19925;-73
2021/07/22 12:02:43;;;;;;;;;;;;;;;;;;5046651;28;19931;-71
2021/07/22 12:05:10;;;;;;;;;;;;;;;;;;5046516;28;20027;-71
2021/07/22 12:07:37;;;;;;;;;;;;;;;;;;5046881;28;19974;-71
2021/07/22 12:10:04;;;;;;;;;;;;;;;;;;5047117;28;20251;-73
2021/07/22 12:12:31;;;;;;;;;;;;;;;;;;5048631;28;19943;-72
2021/07/22 12:14:58;;;;;;;;;;;;;;;;;;5044268;28;19925;-71
2021/07/22 12:17:25;;;;;;;;;;;;;;;;;;5035095;28;20136;-71
2021/07/22 12:19:52;;;;;;;;;;;;;;;;;;5045531;28;20420;-72
2021/07/22 12:22:19;;;;;;;;;;;;;;;;;;5040117;28;19931;-71
2021/07/22 12:24:46;;;;;;;;;;;;;;;;;;5038524;28;19925;-73
2021/07/22 12:27:13;;;;;;;;;;;;;;;;;;5040693;28;20020;-70
2021/07/22 12:29:40;;;;;;;;;;;;;;;;;;5039349;28;19939;-72
2021/07/22 12:32:09;;;;;;;;;;;;;;;;;;5041027;28;19931;-71
2021/07/22 12:34:36;;;;;;;;;;;;;;;;;;5042760;28;19972;-71
2021/07/22 12:37:03;;;;;;;;;;;;;;;;;;5037733;28;19933;-73
2021/07/22 12:39:32;;;;;;;;;;;;;;;;;;5043652;28;19925;-71
2021/07/22 12:41:59;;;;;;;;;;;;;;;;;;5039914;28;20336;-72
2021/07/22 12:44:26;;;;;;;;;;;;;;;;;;5042400;28;19931;-74
2021/07/22 12:46:53;;;;;;;;;;;;;;;;;;5042288;28;19933;-73
2021/07/22 12:49:20;;;;;;;;;;;;;;;;;;5043192;28;19972;-74
2021/07/22 12:51:47;;;;;;;;;;;;;;;;;;5043059;28;19924;-73
2021/07/22 12:54:14;;;;;;;;;;;;;;;;;;5045086;28;20393;-73
2021/07/22 12:56:40;;;;;;;;;;;;;;;;;;5043130;28;19933;-74
2021/07/22 12:59:07;;;;;;;;;;;;;;;;;;5042060;28;19936;-77
2021/07/22 13:01:34;;;;;;;;;;;;;;;;;;5043743;28;20031;-73
2021/07/22 13:04:02;;;;;;;;;;;;;;;;;;5044928;28;19928;-76
2021/07/22 13:06:29;;;;;;;;;;;;;;;;;;5048410;28;20007;-73
2021/07/22 13:08:56;;;;;;;;;;;;;;;;;;5046639;28;19925;-75
2021/07/22 13:11:24;;;;;;;;;;;;;;;;;;5049019;28;20023;-73
2021/07/22 13:13:51;;;;;;;;;;;;;;;;;;5045726;28;20396;-75
2021/07/22 13:16:18;;;;;;;;;;;;;;;;;;5046408;28;19932;-72
2021/07/22 13:18:45;;;;;;;;;;;;;;;;;;5045749;28;19931;-71
2021/07/22 13:21:12;;;;;;;;;;;;;;;;;;5045853;28;19929;-74
2021/07/22 13:23:39;;;;;;;;;;;;;;;;;;5043193;28;19925;-70
2021/07/22 13:26:06;;;;;;;;;;;;;;;;;;5046705;28;19960;-71
2021/07/22 13:28:34;;;;;;;;;;;;;;;;;;5045887;28;20497;-71
2021/07/22 13:31:01;;;;;;;;;;;;;;;;;;5042887;28;19929;-70
2021/07/22 13:33:28;;;;;;;;;;;;;;;;;;5043908;28;20024;-72
2021/07/22 13:35:56;;;;;;;;;;;;;;;;;;5045629;28;19932;-70
2021/07/22 13:38:33;;;;;;;;;;;;;;;;;;5040657;28;19940;-70
2021/07/22 13:41:01;;;;;;;;;;;;;;;;;;5044971;28;19936;-71
2021/07/22 13:43:28;;;;;;;;;;;;;;;;;;5045360;28;19928;-71
2021/07/22 13:45:55;;;;;;;;;;;;;;;;;;5044887;28;19925;-73
2021/07/22 13:48:22;;;;;;;;;;;;;;;;;;5046929;28;20318;-72
2021/07/22 13:50:49;;;;;;;;;;;;;;;;;;5047543;28;19980;-74
2021/07/22 13:53:16;;;;;;;;;;;;;;;;;;5048117;28;20285;-72
2021/07/22 13:55:43;;;;;;;;;;;;;;;;;;5048190;28;19935;-71
2021/07/22 13:58:10;;;;;;;;;;;;;;;;;;5045644;28;20403;-73
2021/07/22 14:00:37;;;;;;;;;;;;;;;;;;5047110;28;19975;-72
2021/07/22 14:03:05;;;;;;;;;;;;;;;;;;5043865;28;19925;-71
2021/07/22 14:05:32;;;;;;;;;;;;;;;;;;5045351;28;19929;-73
2021/07/22 14:07:59;;;;;;;;;;;;;;;;;;5041491;28;20408;-73
2021/07/22 14:10:26;;;;;;;;;;;;;;;;;;5042481;28;20039;-73
2021/07/22 14:12:53;;;;;;;;;;;;;;;;;;5047936;28;19933;-72
2021/07/22 14:15:20;;;;;;;;;;;;;;;;;;5040747;28;20408;-73
2021/07/22 14:17:47;;;;;;;;;;;;;;;;;;5041078;28;19931;-73
2021/07/22 14:20:14;;;;;;;;;;;;;;;;;;5041528;28;19976;-72
2021/07/22 14:22:41;;;;;;;;;;;;;;;;;;5043309;28;19933;-72
2021/07/22 14:25:08;;;;;;;;;;;;;;;;;;5051177;28;19931;-73
2021/07/22 14:27:35;;;;;;;;;;;;;;;;;;5044050;28;20020;-71
2021/07/22 14:30:04;;;;;;;;;;;;;;;;;;5050932;28;20214;-73
2021/07/22 14:32:31;;;;;;;;;;;;;;;;;;5043940;28;19932;-75
2021/07/22 14:34:58;;;;;;;;;;;;;;;;;;5048291;28;19946;-73
2021/07/22 14:37:25;;;;;;;;;;;;;;;;;;5046151;28;20296;-71
2021/07/22 14:39:52;;;;;;;;;;;;;;;;;;5049762;28;20278;-72
2021/07/22 14:42:19;;;;;;;;;;;;;;;;;;5047745;28;19939;-71
2021/07/22 14:44:46;;;;;;;;;;;;;;;;;;5049294;28;19924;-74
2021/07/22 14:47:13;;;;;;;;;;;;;;;;;;5046999;28;19945;-71
2021/07/22 14:49:40;;;;;;;;;;;;;;;;;;5047905;28;19932;-72
2021/07/22 14:52:07;;;;;;;;;;;;;;;;;;5043548;28;19929;-73
2021/07/22 14:54:35;;;;;;;;;;;;;;;;;;5050448;28;19948;-71
2021/07/22 14:57:02;;;;;;;;;;;;;;;;;;5048055;28;20397;-73
2021/07/22 14:59:29;;;;;;;;;;;;;;;;;;5047087;28;19932;-73
2021/07/22 15:01:56;;;;;;;;;;;;;;;;;;5050340;28;19925;-71
2021/07/22 15:04:23;;;;;;;;;;;;;;;;;;5049089;28;19924;-72
2021/07/22 15:06:50;;;;;;;;;;;;;;;;;;5043443;28;19933;-71
2021/07/22 15:09:17;;;;;;;;;;;;;;;;;;5047995;28;20281;-69
2021/07/22 15:11:44;;;;;;;;;;;;;;;;;;5052083;28;19977;-69
2021/07/22 15:14:11;;;;;;;;;;;;;;;;;;5048456;28;19925;-69
2021/07/22 15:16:38;;;;;;;;;;;;;;;;;;5047452;28;19932;-73
2021/07/22 15:19:05;;;;;;;;;;;;;;;;;;5042517;28;19932;-72
2021/07/22 15:21:35;;;;;;;;;;;;;;;;;;5045677;28;19932;-72
2021/07/22 15:24:02;;;;;;;;;;;;;;;;;;5045233;28;19943;-73
2021/07/22 15:26:29;;;;;;;;;;;;;;;;;;5042778;28;20399;-72
2021/07/22 15:28:57;;;;;;;;;;;;;;;;;;5044672;28;19952;-70
2021/07/22 15:31:24;;;;;;;;;;;;;;;;;;5042100;28;19929;-72
2021/07/22 15:33:50;;;;;;;;;;;;;;;;;;5042407;28;19925;-71
2021/07/22 15:36:17;;;;;;;;;;;;;;;;;;5043639;28;19925;-73
2021/07/22 15:38:45;;;;;;;;;;;;;;;;;;5041310;28;19925;-74
2021/07/22 15:41:12;;;;;;;;;;;;;;;;;;5044638;28;20332;-77
2021/07/22 15:43:39;;;;;;;;;;;;;;;;;;5040928;28;19939;-70
2021/07/22 15:46:05;;;;;;;;;;;;;;;;;;5044169;28;19932;-71
2021/07/22 15:48:32;;;;;;;;;;;;;;;;;;5045262;28;19932;-71
2021/07/22 15:50:59;;;;;;;;;;;;;;;;;;5042152;28;20748;-71
2021/07/22 15:53:26;;;;;;;;;;;;;;;;;;5047461;28;20309;-74
2021/07/22 15:55:53;;;;;;;;;;;;;;;;;;5045781;28;19925;-71
2021/07/22 15:58:20;;;;;;;;;;;;;;;;;;5042929;28;19932;-71
2021/07/22 16:00:47;;;;;;;;;;;;;;;;;;5043617;28;19925;-70
2021/07/22 16:03:14;;;;;;;;;;;;;;;;;;5040660;28;19925;-70
2021/07/22 16:05:41;;;;;;;;;;;;;;;;;;5047393;28;20381;-71
2021/07/22 16:08:08;;;;;;;;;;;;;;;;;;5043442;28;19925;-72
2021/07/22 16:10:35;;;;;;;;;;;;;;;;;;5043008;28;19951;-71
2021/07/22 16:13:02;;;;;;;;;;;;;;;;;;5045494;28;19932;-71
2021/07/22 16:15:29;;;;;;;;;;;;;;;;;;5045825;28;20312;-72
2021/07/22 16:17:56;;;;;;;;;;;;;;;;;;5049568;28;19932;-70
2021/07/22 16:20:23;;;;;;;;;;;;;;;;;;5047079;28;19971;-71
2021/07/22 16:22:50;;;;;;;;;;;;;;;;;;5044430;28;19931;-68
2021/07/22 16:25:17;;;;;;;;;;;;;;;;;;5046230;28;20262;-71
2021/07/22 16:27:45;;;;;;;;;;;;;;;;;;5046071;28;19924;-73
2021/07/22 16:30:13;;;;;;;;;;;;;;;;;;5044967;28;19925;-75
2021/07/22 16:32:40;;;;;;;;;;;;;;;;;;5045519;28;19933;-75
2021/07/22 16:35:07;;;;;;;;;;;;;;;;;;5049247;28;19925;-73
2021/07/22 16:37:34;;;;;;;;;;;;;;;;;;5049189;28;19929;-73
2021/07/22 16:40:01;;;;;;;;;;;;;;;;;;5050432;28;19925;-74
2021/07/22 16:42:28;;;;;;;;;;;;;;;;;;5046204;28;20340;-74
2021/07/22 16:44:55;;;;;;;;;;;;;;;;;;5054165;28;19939;-73